Time;durP1;ratioP1;P1;durP2;ratioP2;P2;SDS_P1;SDS_P2;PMS_P1;PMS_P2;Temp;Humidity;BMP_temperature;BMP_pressure;BME280_temperature;BME280_humidity;BME280_pressure;Samples;Min_cycle;Max_cycle;Signal;HPM_P1;HPM_P2
2021/10/20 00:00:24;;;;;;;13.28;8.85;;;;;;;4.07;91.47;93995.33;1770764;80;21005;-84
2021/10/20 00:02:51;;;;;;;17.07;9.50;;;;;;;4.16;90.33;93985.77;1782250;78;21121;-85
2021/10/20 00:05:18;;;;;;;12.03;8.53;;;;;;;4.16;90.33;93985.77;1808780;76;21024;-85
2021/10/20 00:07:45;;;;;;;13.08;7.33;;;;;;;4.21;90.29;93979.36;1822647;77;21405;-85
2021/10/20 00:10:15;;;;;;;9.38;6.58;;;;;;;4.23;90.51;93993.27;1813633;78;21034;-84
2021/10/20 00:12:41;;;;;;;13.38;7.87;;;;;;;4.19;90.78;93981.63;1803081;77;21028;-84
2021/10/20 00:15:10;;;;;;;11.22;7.33;;;;;;;4.24;91.03;93989.45;1830147;77;21029;-86
2021/10/20 00:17:36;;;;;;;13.03;6.35;;;;;;;4.42;90.66;93972.46;1828548;77;21039;-87
2021/10/20 00:20:07;;;;;;;11.33;7.78;;;;;;;4.60;89.28;93980.47;1826130;77;21183;-85
2021/10/20 00:22:35;;;;;;;9.65;7.15;;;;;;;4.77;88.58;93975.33;1825683;77;20983;-85
2021/10/20 00:25:03;;;;;;;13.22;8.18;;;;;;;4.92;87.81;93984.01;1770790;79;21596;-85
2021/10/20 00:27:29;;;;;;;11.15;8.10;;;;;;;4.94;87.06;93969.64;1754579;80;21643;-85
2021/10/20 00:29:56;;;;;;;9.78;6.62;;;;;;;4.96;86.68;93961.19;1818500;77;21081;-86
2021/10/20 00:32:23;;;;;;;13.78;6.92;;;;;;;4.97;86.80;93954.70;1822641;77;21782;-84
2021/10/20 00:34:49;;;;;;;10.68;8.05;;;;;;;4.96;86.45;93949.06;1836825;77;21057;-86
2021/10/20 00:37:16;;;;;;;11.90;7.47;;;;;;;4.89;86.55;93949.69;1825368;77;21002;-86
2021/10/20 00:39:43;;;;;;;10.43;7.12;;;;;;;4.85;86.69;93950.95;1828588;77;21536;-85
2021/10/20 00:42:10;;;;;;;11.18;6.67;;;;;;;4.92;86.72;93950.32;1831745;77;21472;-85
2021/10/20 00:44:57;;;;;;;8.13;6.05;;;;;;;4.93;86.47;93934.93;1775568;78;21103;-85
2021/10/20 00:47:24;;;;;;;11.25;6.53;;;;;;;4.94;86.63;93937.30;1796282;77;21101;-85
2021/10/20 00:49:51;;;;;;;9.75;6.35;;;;;;;4.84;86.30;93937.23;1764670;78;21069;-84
2021/10/20 00:52:18;;;;;;;9.98;5.55;;;;;;;4.81;86.75;93939.83;1748574;78;21086;-85
2021/10/20 00:54:45;;;;;;;10.80;5.75;;;;;;;4.80;87.40;93925.58;1810246;77;21003;-85
2021/10/20 00:57:12;;;;;;;7.97;5.47;;;;;;;4.79;87.60;93925.94;1743791;79;21096;-82
2021/10/20 00:59:39;;;;;;;11.03;7.05;;;;;;;4.77;87.40;93928.96;1781028;79;21383;-85
2021/10/20 01:02:06;;;;;;;10.48;6.28;;;;;;;4.70;87.38;93924.76;1786481;79;21019;-85
2021/10/20 01:04:33;;;;;;;9.10;5.58;;;;;;;4.85;87.26;93923.19;1788394;77;21081;-84
2021/10/20 01:06:59;;;;;;;9.80;6.65;;;;;;;4.85;86.23;93921.30;1777859;77;21046;-85
2021/10/20 01:09:26;;;;;;;7.75;5.50;;;;;;;4.80;86.84;93924.23;1821511;77;21108;-85
2021/10/20 01:11:53;;;;;;;9.03;6.35;;;;;;;4.81;87.08;93916.39;1827713;77;21009;-84
2021/10/20 01:14:21;;;;;;;7.33;6.03;;;;;;;4.83;87.25;93922.77;1818236;77;21685;-85
2021/10/20 01:16:48;;;;;;;23.92;7.35;;;;;;;4.83;87.11;93911.42;1817535;77;21065;-84
2021/10/20 01:19:15;;;;;;;8.78;5.83;;;;;;;4.81;87.05;93910.19;1827135;77;21135;-85
2021/10/20 01:21:42;;;;;;;8.23;6.60;;;;;;;4.86;87.02;93918.81;1825694;77;21127;-85
2021/10/20 01:24:09;;;;;;;9.65;6.47;;;;;;;4.96;86.46;93909.98;1822813;77;21044;-86
2021/10/20 01:26:35;;;;;;;8.70;6.75;;;;;;;5.05;86.12;93907.34;1834637;77;21072;-86
2021/10/20 01:29:02;;;;;;;11.05;6.37;;;;;;;5.10;85.63;93907.65;1834233;77;21068;-86
2021/10/20 01:31:28;;;;;;;10.38;6.55;;;;;;;5.13;85.44;93910.22;1830402;77;21554;-85
2021/10/20 01:33:58;;;;;;;10.08;6.10;;;;;;;5.16;85.30;93900.88;1795556;78;21102;-86
2021/10/20 01:36:24;;;;;;;8.78;5.70;;;;;;;5.20;84.83;93892.30;1835077;77;21560;-85
2021/10/20 01:38:52;;;;;;;8.80;6.15;;;;;;;5.22;85.08;93894.64;1818975;78;21576;-85
2021/10/20 01:41:18;;;;;;;10.18;6.60;;;;;;;5.31;84.58;93900.08;1769528;78;21079;-85
2021/10/20 01:43:49;;;;;;;8.55;6.45;;;;;;;5.38;84.43;93896.77;1762138;80;20959;-85
2021/10/20 01:46:19;;;;;;;7.40;5.22;;;;;;;5.42;84.17;93893.59;1756131;80;21387;-85
2021/10/20 01:48:46;;;;;;;8.20;5.20;;;;;;;5.45;83.76;93890.73;1726397;81;21207;-86
2021/10/20 01:51:14;;;;;;;9.18;6.25;;;;;;;5.36;83.77;93889.02;1763954;79;21065;-85
2021/10/20 01:53:40;;;;;;;8.75;6.00;;;;;;;5.27;83.84;93884.95;1770755;80;21858;-85
2021/10/20 01:56:08;;;;;;;9.90;6.47;;;;;;;5.31;84.08;93887.16;1785690;77;21611;-86
2021/10/20 01:58:35;;;;;;;8.75;5.97;;;;;;;5.38;83.84;93883.29;1814196;77;21138;-85
2021/10/20 02:01:07;;;;;;;8.08;5.87;;;;;;;5.47;83.38;93887.91;1753871;80;21058;-85
2021/10/20 02:03:31;;;;;;;10.80;6.67;;;;;;;5.54;83.02;93896.17;1833310;77;21602;-85
2021/10/20 02:05:58;;;;;;;7.58;5.72;;;;;;;5.55;82.70;93889.63;1762692;79;21634;-84
2021/10/20 02:08:24;;;;;;;8.60;5.95;;;;;;;5.54;82.71;93893.47;1796544;77;21018;-85
2021/10/20 02:10:50;;;;;;;9.30;6.67;;;;;;;5.43;82.65;93874.14;1792474;78;21112;-86
2021/10/20 02:13:18;;;;;;;9.43;5.67;;;;;;;5.46;82.97;93886.93;1771762;79;21037;-86
2021/10/20 02:15:45;;;;;;;7.33;5.75;;;;;;;5.50;82.36;93898.01;1794261;79;21477;-86
2021/10/20 02:18:12;;;;;;;7.97;5.80;;;;;;;5.43;82.56;93887.63;1788701;76;21038;-86
2021/10/20 02:20:40;;;;;;;7.22;5.50;;;;;;;5.46;82.86;93883.66;1786919;79;21561;-86
2021/10/20 02:23:06;;;;;;;8.15;6.12;;;;;;;5.56;82.69;93888.49;1775414;79;21586;-85
2021/10/20 02:25:33;;;;;;;8.05;6.10;;;;;;;5.65;82.43;93895.63;1738552;77;21097;-86
2021/10/20 02:27:59;;;;;;;7.70;5.87;;;;;;;5.76;81.74;93889.91;1756684;79;21604;-86
2021/10/20 02:30:26;;;;;;;8.23;5.37;;;;;;;5.85;81.56;93894.52;1783457;78;21571;-86
2021/10/20 02:32:54;;;;;;;9.60;5.50;;;;;;;5.93;81.05;93894.13;1798248;77;21574;-85
2021/10/20 02:35:20;;;;;;;9.13;6.08;;;;;;;5.99;81.03;93896.20;1791227;77;21137;-85
2021/10/20 02:37:47;;;;;;;6.33;5.37;;;;;;;5.99;80.86;93894.86;1780713;79;21317;-84
2021/10/20 02:40:14;;;;;;;8.40;6.12;;;;;;;6.00;80.74;93900.46;1767358;80;21561;-86
2021/10/20 02:42:41;;;;;;;10.63;5.65;;;;;;;6.03;80.52;93892.23;1793211;78;21628;-87
2021/10/20 02:45:10;;;;;;;6.92;5.65;;;;;;;6.03;80.30;93897.06;1789421;79;21608;-87
2021/10/20 02:47:37;;;;;;;8.23;5.47;;;;;;;6.04;80.15;93893.22;1763760;77;21131;-85
2021/10/20 02:50:05;;;;;;;8.75;5.47;;;;;;;6.09;79.94;93888.09;1736159;79;21062;-86
2021/10/20 02:52:32;;;;;;;8.93;5.75;;;;;;;6.15;79.74;93893.44;1744668;80;21674;-86
2021/10/20 02:54:58;;;;;;;9.05;5.28;;;;;;;6.17;79.39;93886.32;1745005;81;21568;-86
2021/10/20 02:57:25;;;;;;;10.03;5.92;;;;;;;6.22;79.15;93884.70;1721660;82;21112;-87
2021/10/20 02:59:52;;;;;;;6.28;5.22;;;;;;;6.24;78.65;93898.08;1763418;80;21768;-86
2021/10/20 03:02:19;;;;;;;8.38;5.80;;;;;;;6.26;78.89;93897.14;1778409;78;21054;-86
2021/10/20 03:04:47;;;;;;;7.47;5.50;;;;;;;6.21;78.94;93899.36;1783238;78;21067;-85
2021/10/20 03:07:13;;;;;;;10.13;6.20;;;;;;;6.15;79.11;93896.14;1811610;77;21038;-87
2021/10/20 03:09:40;;;;;;;8.63;5.85;;;;;;;6.14;79.19;93899.20;1779818;78;21042;-87
2021/10/20 03:12:06;;;;;;;6.83;5.27;;;;;;;6.15;79.26;93898.84;1783873;77;21528;-87
2021/10/20 03:14:33;;;;;;;9.80;5.45;;;;;;;6.16;79.03;93905.80;1779171;79;20995;-86
2021/10/20 03:16:59;;;;;;;9.40;6.12;;;;;;;6.24;78.90;93908.07;1772751;78;21019;-86
2021/10/20 03:19:26;;;;;;;8.25;5.85;;;;;;;6.26;78.76;93894.44;1809414;78;21011;-86
2021/10/20 03:21:52;;;;;;;7.42;4.78;;;;;;;6.27;78.73;93901.96;1822964;78;21029;-87
2021/10/20 03:24:18;;;;;;;5.37;4.60;;;;;;;6.29;78.71;93898.36;1807729;78;21085;-87
2021/10/20 03:26:45;;;;;;;7.45;5.35;;;;;;;6.30;78.58;93910.14;1824333;78;20992;-86
2021/10/20 03:29:11;;;;;;;7.42;5.28;;;;;;;6.30;78.76;93911.48;1831008;77;20978;-85
2021/10/20 03:31:38;;;;;;;6.97;5.03;;;;;;;6.29;78.73;93905.88;1828447;76;21528;-86
2021/10/20 03:34:05;;;;;;;6.75;5.22;;;;;;;6.28;78.80;93898.92;1837230;77;20979;-86
2021/10/20 03:36:32;;;;;;;5.78;5.20;;;;;;;6.30;78.76;93897.20;1844176;77;21114;-85
2021/10/20 03:38:58;;;;;;;6.75;5.37;;;;;;;6.33;78.75;93901.33;1761698;80;21109;-86
2021/10/20 03:41:25;;;;;;;5.80;4.78;;;;;;;6.31;78.79;93900.11;1761216;79;21025;-85
2021/10/20 03:43:52;;;;;;;7.03;4.97;;;;;;;6.25;78.82;93896.16;1780507;79;21612;-86
2021/10/20 03:46:18;;;;;;;5.05;4.47;;;;;;;6.17;78.97;93892.53;1760007;80;20956;-86
2021/10/20 03:48:46;;;;;;;7.97;4.42;;;;;;;6.16;79.24;93893.64;1796242;77;21037;-85
2021/10/20 03:51:12;;;;;;;6.85;5.20;;;;;;;6.15;79.20;93897.48;1809873;77;21007;-87
2021/10/20 03:53:39;;;;;;;7.50;5.23;;;;;;;6.17;79.31;93906.58;1820354;77;21011;-86
2021/10/20 03:56:05;;;;;;;9.10;5.08;;;;;;;6.20;79.08;93903.17;1821643;77;21702;-85
2021/10/20 03:58:32;;;;;;;6.67;4.65;;;;;;;6.22;78.92;93896.86;1822364;77;21496;-86
2021/10/20 04:00:58;;;;;;;6.05;4.30;;;;;;;6.30;78.91;93895.86;1829597;77;21473;-86
2021/10/20 04:03:26;;;;;;;5.33;4.33;;;;;;;6.30;78.78;93897.20;1776459;77;21041;-82
2021/10/20 04:05:53;;;;;;;5.83;4.58;;;;;;;6.16;79.00;93881.49;1783040;77;21264;-85
2021/10/20 04:08:20;;;;;;;9.25;5.35;;;;;;;6.08;79.44;93890.02;1798936;77;21537;-86
2021/10/20 04:10:46;;;;;;;6.60;5.03;;;;;;;6.04;79.53;93889.16;1782723;79;21065;-85
2021/10/20 04:13:13;;;;;;;6.05;4.58;;;;;;;6.11;79.51;93891.81;1801738;78;21288;-86
2021/10/20 04:15:39;;;;;;;7.37;5.28;;;;;;;6.07;79.67;93890.39;1788163;79;21057;-85
2021/10/20 04:18:07;;;;;;;7.03;5.05;;;;;;;6.05;79.77;93886.67;1773760;79;20962;-86
2021/10/20 04:20:33;;;;;;;6.65;4.72;;;;;;;6.04;79.82;93886.47;1771888;78;21499;-85
2021/10/20 04:23:00;;;;;;;5.15;4.53;;;;;;;6.09;79.83;93874.59;1743540;78;21010;-85
2021/10/20 04:25:26;;;;;;;6.45;4.40;;;;;;;6.16;79.70;93888.24;1804066;78;21736;-86
2021/10/20 04:27:53;;;;;;;8.20;4.90;;;;;;;6.18;79.56;93876.53;1826331;77;20974;-87
2021/10/20 04:30:20;;;;;;;7.70;5.17;;;;;;;6.17;79.67;93878.22;1810311;77;21141;-87
2021/10/20 04:32:46;;;;;;;9.90;5.28;;;;;;;6.15;79.51;93872.41;1821792;76;21003;-86
2021/10/20 04:35:13;;;;;;;6.78;5.05;;;;;;;6.13;79.32;93866.57;1810544;77;20970;-86
2021/10/20 04:37:40;;;;;;;6.33;4.37;;;;;;;6.15;79.54;93871.84;1837333;77;21108;-86
2021/10/20 04:40:09;;;;;;;6.08;4.90;;;;;;;6.15;79.58;93862.39;1843025;77;21045;-86
2021/10/20 04:42:38;;;;;;;7.12;4.78;;;;;;;6.09;79.45;93861.09;1795110;77;21061;-85
2021/10/20 04:45:05;;;;;;;6.25;4.55;;;;;;;6.12;79.68;93866.37;1817481;77;20970;-85
2021/10/20 04:47:33;;;;;;;7.37;5.50;;;;;;;6.08;79.67;93852.80;1845290;76;21025;-84
2021/10/20 04:50:02;;;;;;;7.20;5.45;;;;;;;6.02;79.91;93857.71;1836176;77;21131;-86
2021/10/20 04:52:30;;;;;;;6.67;5.30;;;;;;;6.09;79.96;93855.70;1843904;76;21101;-86
2021/10/20 04:54:57;;;;;;;6.37;4.70;;;;;;;6.16;79.76;93855.06;1828523;77;21022;-85
2021/10/20 04:57:23;;;;;;;6.25;4.95;;;;;;;6.21;79.79;93850.17;1787489;77;21045;-86
2021/10/20 04:59:50;;;;;;;8.95;5.17;;;;;;;6.20;79.46;93858.61;1777594;77;20979;-86
2021/10/20 05:02:17;;;;;;;6.87;5.40;;;;;;;6.23;79.00;93849.23;1832175;76;21129;-86
2021/10/20 05:04:44;;;;;;;9.88;6.83;;;;;;;6.34;79.04;93854.84;1758667;80;21694;-86
2021/10/20 05:07:13;;;;;;;8.05;6.05;;;;;;;6.38;78.86;93846.23;1810642;77;21061;-87
2021/10/20 05:09:40;;;;;;;7.75;6.20;;;;;;;6.39;78.78;93854.54;1826786;77;21650;-87
2021/10/20 05:12:07;;;;;;;5.67;4.85;;;;;;;6.41;78.30;93854.20;1831355;76;20991;-87
2021/10/20 05:14:35;;;;;;;8.18;5.08;;;;;;;6.45;78.25;93848.30;1836143;76;21146;-85
2021/10/20 05:17:02;;;;;;;7.55;5.40;;;;;;;6.49;77.87;93847.21;1785081;78;21056;-85
2021/10/20 05:19:30;;;;;;;6.15;5.12;;;;;;;6.56;77.79;93850.05;1700763;81;21079;-86
2021/10/20 05:21:56;;;;;;;6.03;4.78;;;;;;;6.57;77.77;93861.05;1730153;79;21066;-86
2021/10/20 05:24:23;;;;;;;9.08;5.33;;;;;;;6.63;77.08;93857.50;1784799;77;21060;-86
2021/10/20 05:26:54;;;;;;;8.68;5.12;;;;;;;6.70;76.99;93853.58;1796505;77;21092;-85
2021/10/20 05:29:18;;;;;;;6.42;4.85;;;;;;;6.76;76.67;93849.99;1758335;77;21304;-86
2021/10/20 05:31:44;;;;;;;6.67;5.40;;;;;;;6.81;76.59;93849.14;1829877;77;21049;-87
2021/10/20 05:34:10;;;;;;;8.13;4.80;;;;;;;6.90;76.16;93846.19;1825223;77;21045;-85
2021/10/20 05:36:37;;;;;;;11.12;5.42;;;;;;;7.06;75.78;93845.47;1813715;78;20969;-86
2021/10/20 05:39:05;;;;;;;7.20;5.45;;;;;;;7.18;75.29;93858.02;1818904;78;21081;-82
2021/10/20 05:41:32;;;;;;;9.43;5.90;;;;;;;7.27;74.67;93857.79;1815536;77;21458;-88
2021/10/20 05:43:58;;;;;;;6.72;5.47;;;;;;;7.33;74.19;93856.89;1829976;76;21107;-86
2021/10/20 05:46:25;;;;;;;7.10;4.80;;;;;;;7.35;74.23;93855.39;1834170;76;21551;-86
2021/10/20 05:48:53;;;;;;;8.18;5.70;;;;;;;7.48;74.24;93854.61;1826745;77;21064;-85
2021/10/20 05:51:19;;;;;;;20.48;5.75;;;;;;;7.77;73.53;93847.09;1809084;77;21768;-87
2021/10/20 05:53:46;;;;;;;7.28;5.97;;;;;;;7.99;72.50;93854.16;1745331;80;22057;-86
2021/10/20 05:56:13;;;;;;;8.60;5.80;;;;;;;8.07;71.85;93855.02;1711029;82;20995;-84
2021/10/20 06:04:57;;;;;;;5.15;4.60;;;;;;;8.13;71.09;93852.20;1723666;80;21082;-86
2021/10/20 06:10:57;;;;;;;12.20;5.40;;;;;;;8.34;70.53;93844.89;1819218;77;21102;-88
2021/10/20 06:13:23;;;;;;;8.03;5.42;;;;;;;8.54;70.25;93845.52;1754396;77;21078;-87
2021/10/20 06:15:51;;;;;;;6.90;5.17;;;;;;;8.65;68.58;93839.62;1750713;78;21038;-87
2021/10/20 06:18:18;;;;;;;7.90;5.55;;;;;;;8.67;68.55;93844.11;1783813;78;21224;-87
2021/10/20 06:20:44;;;;;;;6.87;4.90;;;;;;;8.63;68.44;93843.30;1752645;80;21061;-87
2021/10/20 06:23:11;;;;;;;8.25;5.03;;;;;;;8.54;68.20;93844.96;1767501;79;21002;-86
2021/10/20 06:25:38;;;;;;;7.42;5.12;;;;;;;8.46;68.46;93837.88;1837757;75;21061;-87
2021/10/20 06:28:05;;;;;;;7.37;5.50;;;;;;;8.45;68.74;93840.39;1815777;76;21245;-85
2021/10/20 06:30:31;;;;;;;6.58;5.50;;;;;;;8.49;68.64;93854.19;1789381;76;21133;-84
2021/10/20 06:32:58;;;;;;;8.75;5.83;;;;;;;8.51;68.69;93849.77;1734555;79;21901;-89
2021/10/20 06:35:25;;;;;;;9.48;5.45;;;;;;;8.56;68.90;93848.06;1785110;79;21083;-85
2021/10/20 06:49:34;;;;;;;7.17;4.22;;;;;;;9.94;64.76;93839.45;1725860;79;28211;-87
2021/10/20 06:52:00;;;;;;;5.90;4.62;;;;;;;9.97;63.62;93837.34;1731336;80;21638;-87
2021/10/20 06:54:27;;;;;;;7.28;5.33;;;;;;;9.97;63.39;93838.70;1712396;81;22009;-86
2021/10/20 06:56:54;;;;;;;5.70;4.97;;;;;;;9.95;63.78;93853.23;1734423;80;21193;-86
2021/10/20 06:59:20;;;;;;;5.40;4.65;;;;;;;9.93;64.32;93843.34;1731721;80;21117;-84
2021/10/20 07:01:47;;;;;;;7.78;5.00;;;;;;;9.98;63.98;93843.55;1752709;80;21105;-86
2021/10/20 07:04:13;;;;;;;12.60;5.33;;;;;;;9.97;63.08;93827.83;1753384;80;21076;-88
2021/10/20 07:06:40;;;;;;;6.97;4.83;;;;;;;9.85;63.50;93830.86;1810973;77;21594;-87
2021/10/20 07:09:08;;;;;;;6.17;4.90;;;;;;;9.72;63.77;93838.55;1773768;77;21070;-86
2021/10/20 07:11:36;;;;;;;7.42;5.62;;;;;;;9.76;64.31;93833.14;1746996;79;21063;-85
2021/10/20 07:14:03;;;;;;;6.25;4.97;;;;;;;9.90;63.73;93829.16;1754896;79;21190;-87
2021/10/20 07:16:30;;;;;;;7.87;5.10;;;;;;;10.03;63.02;93841.05;1750213;80;21105;-86
2021/10/20 07:18:56;;;;;;;7.35;5.47;;;;;;;10.19;63.12;93837.42;1749958;80;21909;-87
2021/10/20 07:21:23;;;;;;;7.50;5.00;;;;;;;10.38;62.46;93837.16;1761276;78;21046;-86
2021/10/20 07:23:51;;;;;;;7.72;4.90;;;;;;;10.57;62.28;93844.20;1757838;80;21036;-90
2021/10/20 07:26:21;;;;;;;8.10;4.80;;;;;;;10.79;61.78;93845.02;1762271;80;21060;-87
2021/10/20 07:28:48;;;;;;;6.58;5.70;;;;;;;10.97;59.85;93838.25;1755195;80;21086;-85
2021/10/20 07:31:15;;;;;;;6.08;4.97;;;;;;;11.07;58.97;93836.13;1790115;78;21708;-86
2021/10/20 07:33:42;;;;;;;7.47;5.25;;;;;;;10.99;58.85;93833.80;1758741;78;21377;-86
2021/10/20 07:36:09;;;;;;;8.03;4.92;;;;;;;10.76;58.99;93837.65;1787104;77;21057;-86
2021/10/20 07:38:37;;;;;;;7.70;4.97;;;;;;;10.50;59.58;93825.15;1802263;77;21033;-86
2021/10/20 07:41:04;;;;;;;10.25;5.97;;;;;;;10.31;60.51;93824.90;1769447;77;21058;-87
2021/10/20 07:43:31;;;;;;;5.62;4.67;;;;;;;10.28;60.77;93841.19;1819251;77;21116;-88
2021/10/20 07:45:57;;;;;;;8.38;5.28;;;;;;;10.40;60.82;93823.95;1757403;77;21493;-87
2021/10/20 07:48:24;;;;;;;8.83;4.30;;;;;;;10.60;59.53;93831.17;1790680;77;21635;-86
2021/10/20 07:50:51;;;;;;;8.50;4.90;;;;;;;10.79;60.16;93827.91;1792385;77;21631;-86
2021/10/20 07:53:17;;;;;;;7.50;4.25;;;;;;;11.02;58.72;93827.00;1757246;80;21761;-87
2021/10/20 07:55:44;;;;;;;7.35;4.58;;;;;;;11.25;58.68;93827.98;1748861;80;21729;-90
2021/10/20 07:58:10;;;;;;;5.58;4.03;;;;;;;11.44;58.42;93824.08;1754279;80;21065;-86
2021/10/20 08:00:37;;;;;;;6.37;4.55;;;;;;;11.60;57.54;93816.86;1753435;80;21042;-87
2021/10/20 08:03:03;;;;;;;6.25;4.22;;;;;;;11.56;55.75;93832.43;1777065;77;21016;-84
2021/10/20 08:05:30;;;;;;;5.85;3.62;;;;;;;11.30;56.83;93826.22;1805150;77;21075;-86
2021/10/20 08:07:59;;;;;;;8.25;5.25;;;;;;;11.16;57.46;93821.54;1752037;80;21089;-87
2021/10/20 08:10:28;;;;;;;5.12;4.40;;;;;;;11.06;57.84;93822.34;1813930;77;21084;-86
2021/10/20 08:12:57;;;;;;;5.42;4.40;;;;;;;11.01;58.51;93817.84;1750666;77;21086;-84
2021/10/20 08:15:24;;;;;;;11.22;8.15;;;;;;;10.96;57.81;93827.17;1713242;81;21577;-85
2021/10/20 08:17:51;;;;;;;6.92;5.17;;;;;;;10.75;58.34;93818.97;1715058;80;21060;-86
2021/10/20 08:20:22;;;;;;;10.50;5.20;;;;;;;10.53;58.96;93809.98;1754614;80;21875;-85
2021/10/20 08:22:49;;;;;;;5.28;4.55;;;;;;;10.33;59.21;93814.98;1762387;80;21593;-85
2021/10/20 08:25:15;;;;;;;9.95;5.83;;;;;;;10.19;59.43;93806.97;1766474;79;21093;-86
2021/10/20 08:27:43;;;;;;;5.72;4.50;;;;;;;10.14;59.50;93813.34;1748168;80;21097;-85
2021/10/20 08:30:16;;;;;;;5.95;4.55;;;;;;;10.09;59.76;93804.98;1734374;80;21028;-86
2021/10/20 08:32:39;;;;;;;8.10;4.40;;;;;;;10.07;59.80;93813.30;1761399;79;21060;-84
2021/10/20 08:35:07;;;;;;;7.25;4.62;;;;;;;10.03;59.86;93809.22;1769287;79;21037;-86
2021/10/20 08:37:34;;;;;;;5.70;4.12;;;;;;;10.04;60.30;93802.64;1757151;79;21191;-87
2021/10/20 08:40:00;;;;;;;9.28;5.47;;;;;;;10.10;59.55;93803.04;1767205;79;21029;-85
2021/10/20 08:42:27;;;;;;;5.25;4.75;;;;;;;10.16;59.66;93801.52;1766034;79;21064;-86
2021/10/20 08:44:55;;;;;;;7.30;4.80;;;;;;;10.24;59.56;93801.73;1734090;79;21830;-87
2021/10/20 08:47:22;;;;;;;5.65;3.83;;;;;;;10.39;59.54;93799.88;1763875;79;21117;-86
2021/10/20 08:49:49;;;;;;;5.67;4.35;;;;;;;10.61;59.50;93794.69;1766071;79;21104;-86
2021/10/20 08:52:15;;;;;;;5.78;4.47;;;;;;;10.88;58.40;93791.02;1766663;79;21642;-84
2021/10/20 08:54:42;;;;;;;6.25;4.78;;;;;;;11.17;57.91;93800.56;1748242;79;21041;-87
2021/10/20 08:57:08;;;;;;;6.22;4.50;;;;;;;11.43;56.19;93788.47;1742605;79;21100;-85
2021/10/20 08:59:36;;;;;;;5.20;4.12;;;;;;;11.50;55.74;93803.44;1757436;79;21107;-82
2021/10/20 09:02:05;;;;;;;6.30;4.92;;;;;;;11.50;55.26;93799.94;1693919;82;21979;-85
2021/10/20 09:04:33;;;;;;;6.42;5.53;;;;;;;11.47;54.54;93797.44;1698752;82;21121;-83
2021/10/20 09:07:05;;;;;;;5.37;3.65;;;;;;;11.37;55.35;93799.58;1744158;79;21010;-85
2021/10/20 09:09:33;;;;;;;6.75;5.17;;;;;;;11.29;54.81;93793.95;1736441;80;21142;-85
2021/10/20 09:12:01;;;;;;;6.45;4.47;;;;;;;11.19;54.62;93793.55;1763664;79;21119;-86
2021/10/20 09:14:29;;;;;;;4.62;4.22;;;;;;;11.14;55.02;93801.34;1768843;79;21046;-83
2021/10/20 09:16:56;;;;;;;6.15;4.67;;;;;;;11.12;55.44;93805.80;1649486;83;21149;-84
2021/10/20 09:19:31;;;;;;;4.85;3.90;;;;;;;11.15;55.74;93802.30;1746202;79;21101;-83
2021/10/20 09:22:03;;;;;;;4.05;3.50;;;;;;;11.14;55.86;93789.87;1714623;80;21110;-87
2021/10/20 09:24:39;;;;;;;5.65;4.47;;;;;;;11.07;55.71;93793.17;1736595;79;21101;-85
2021/10/20 09:27:18;;;;;;;5.55;3.75;;;;;;;10.96;55.32;93806.00;1756504;79;21965;-83
2021/10/20 09:29:45;;;;;;;4.33;3.62;;;;;;;10.81;55.98;93788.30;1735904;79;21446;-83
2021/10/20 09:32:11;;;;;;;5.72;3.65;;;;;;;10.76;56.35;93772.95;1725894;81;21915;-86
2021/10/20 09:34:39;;;;;;;6.55;4.00;;;;;;;10.78;56.54;93793.14;1733731;79;22371;-85
2021/10/20 09:37:06;;;;;;;9.33;5.00;;;;;;;10.84;55.28;93781.31;1760782;79;21079;-85
2021/10/20 09:39:34;;;;;;;5.35;4.40;;;;;;;10.87;56.27;93790.84;1757459;79;21088;-85
2021/10/20 09:49:15;;;;;;;5.78;3.83;;;;;;;11.20;55.80;93769.83;1710137;82;21028;-87
2021/10/20 09:51:41;;;;;;;5.67;4.12;;;;;;;11.37;54.75;93770.98;1739279;80;20995;-86
2021/10/20 09:54:29;;;;;;;5.25;4.10;;;;;;;11.31;54.27;93769.81;1759418;79;21082;-84
2021/10/20 09:56:59;;;;;;;4.50;3.80;;;;;;;11.23;54.70;93761.47;1732181;79;21859;-85
2021/10/20 09:59:26;;;;;;;4.35;3.40;;;;;;;11.20;54.88;93772.55;1707910;81;21651;-87
2021/10/20 10:01:52;;;;;;;4.92;4.05;;;;;;;11.16;54.67;93767.11;1719287;81;21302;-85
2021/10/20 10:04:19;;;;;;;5.40;4.00;;;;;;;11.15;54.86;93766.14;1728082;80;21726;-85
2021/10/20 10:06:47;;;;;;;3.77;3.37;;;;;;;11.14;54.77;93749.05;1741622;80;21433;-85
2021/10/20 10:09:14;;;;;;;4.62;4.12;;;;;;;11.15;54.78;93761.48;1681886;83;21063;-87
2021/10/20 10:11:54;;;;;;;5.22;4.00;;;;;;;11.17;55.23;93742.83;1738403;80;21068;-86
2021/10/20 10:14:31;;;;;;;6.75;4.03;;;;;;;11.23;54.65;93750.00;1756922;78;21104;-87
2021/10/20 10:16:59;;;;;;;5.80;3.72;;;;;;;11.27;54.75;93752.72;1746015;80;21101;-86
2021/10/20 10:19:32;;;;;;;3.92;3.58;;;;;;;11.32;55.26;93752.31;1739931;80;21147;-87
2021/10/20 10:21:58;;;;;;;6.12;3.90;;;;;;;11.38;54.50;93763.01;1725204;81;21745;-87
2021/10/20 10:24:33;;;;;;;5.80;3.62;;;;;;;11.43;53.31;93755.80;1717696;81;21613;-86
2021/10/20 10:27:05;;;;;;;;;;;;;;;11.43;53.80;93744.34;1693922;81;21116;-86
2021/10/20 10:29:37;;;;;;;5.25;3.90;;;;;;;11.47;53.57;93732.64;1731126;80;20201;-84
2021/10/20 10:32:07;;;;;;;10.82;3.62;;;;;;;11.49;53.69;93719.42;1715293;80;21030;-85
2021/10/20 10:34:36;;;;;;;3.60;2.98;;;;;;;11.55;54.29;93741.02;1698775;80;21503;-86
2021/10/20 10:37:04;;;;;;;5.55;4.17;;;;;;;11.62;53.58;93721.90;1708341;81;21096;-85
2021/10/20 10:39:32;;;;;;;6.45;4.05;;;;;;;11.63;53.05;93710.63;1741812;80;22053;-86
2021/10/20 10:42:05;;;;;;;3.83;3.42;;;;;;;11.65;53.11;93714.30;1724975;81;21723;-86
2021/10/20 10:44:50;;;;;;;4.65;3.20;;;;;;;11.72;53.18;93711.56;1741693;80;21055;-85
2021/10/20 10:47:26;;;;;;;4.08;3.27;;;;;;;11.71;52.63;93715.47;1682254;81;21125;-85
2021/10/20 10:49:56;;;;;;;3.40;3.10;;;;;;;11.72;52.90;93717.02;1665455;83;21065;-87
2021/10/20 10:52:34;;;;;;;6.42;3.92;;;;;;;11.73;51.92;93712.33;1681269;83;22408;-86
2021/10/20 10:55:03;;;;;;;5.50;5.00;;;;;;;11.72;52.59;93690.36;1678211;83;21620;-85
2021/10/20 10:57:58;;;;;;;5.12;4.12;;;;;;;11.72;52.01;93699.30;1649094;84;21101;-87
2021/10/20 11:00:45;;;;;;;3.40;3.10;;;;;;;11.71;52.43;93693.67;1681998;83;21125;-85
2021/10/20 11:03:18;;;;;;;5.15;3.22;;;;;;;11.76;52.39;93688.39;1654426;84;26740;-85
2021/10/20 11:05:57;;;;;;;3.27;2.98;;;;;;;11.83;51.56;93694.62;1669845;81;21635;-85
2021/10/20 11:08:25;;;;;;;5.67;3.50;;;;;;;11.91;50.66;93679.02;1677694;81;21097;-86
2021/10/20 11:10:53;;;;;;;4.80;3.35;;;;;;;11.99;51.37;93679.16;1710115;80;21067;-85
2021/10/20 11:13:19;;;;;;;4.58;3.50;;;;;;;12.07;51.42;93663.55;1744441;80;21084;-85
2021/10/20 11:15:46;;;;;;;4.92;3.55;;;;;;;12.20;50.62;93670.69;1719649;81;21043;-84
2021/10/20 11:18:14;;;;;;;3.98;3.27;;;;;;;12.25;50.71;93658.77;1683126;81;21535;-83
2021/10/20 11:20:46;;;;;;;3.75;3.08;;;;;;;12.24;50.52;93657.22;1672246;83;21064;-85
2021/10/20 11:23:16;;;;;;;3.50;3.08;;;;;;;12.19;49.97;93661.73;1735146;78;21060;-87
2021/10/20 11:25:45;;;;;;;4.83;3.30;;;;;;;12.13;50.48;93647.74;1777438;78;21093;-85
2021/10/20 11:28:13;;;;;;;3.62;2.72;;;;;;;12.19;51.28;93655.52;1743859;80;21042;-85
2021/10/20 11:30:40;;;;;;;3.52;2.80;;;;;;;12.33;51.59;93660.26;1740403;80;21065;-85
2021/10/20 11:33:15;;;;;;;6.28;3.17;;;;;;;12.57;49.95;93655.05;1700598;80;21144;-86
2021/10/20 11:35:42;;;;;;;;;;;;;;;12.60;48.98;93654.25;1672144;82;21075;-87
2021/10/20 11:38:15;;;;;;;6.35;3.12;;;;;;;12.45;49.55;93648.69;1678871;83;20197;-85
2021/10/20 11:40:48;;;;;;;6.62;3.05;;;;;;;12.31;50.68;93643.54;1715385;82;21749;-85
2021/10/20 11:43:21;;;;;;;3.45;3.15;;;;;;;12.22;51.18;93652.73;1725762;81;21467;-86
2021/10/20 11:45:48;;;;;;;3.02;2.72;;;;;;;12.24;51.39;93649.63;1718352;81;21038;-86
2021/10/20 11:48:18;;;;;;;6.10;4.03;;;;;;;12.28;50.83;93649.02;1734041;82;21139;-86
2021/10/20 11:50:53;;;;;;;3.45;2.90;;;;;;;12.28;50.00;93642.20;1719192;82;21073;-84
2021/10/20 11:53:19;;;;;;;4.20;2.92;;;;;;;12.22;50.37;93643.79;1717165;82;21049;-85
2021/10/20 11:55:49;;;;;;;3.90;2.77;;;;;;;12.18;50.48;93647.90;1715788;82;21236;-85
2021/10/20 11:58:26;;;;;;;5.28;3.30;;;;;;;12.17;51.41;93653.17;1677744;84;21059;-86
2021/10/20 12:01:01;;;;;;;4.28;2.40;;;;;;;12.18;50.83;93649.85;1712006;82;21071;-85
2021/10/20 12:03:40;;;;;;;;;;;;;;;12.22;51.45;93648.65;1723665;81;21538;-86
2021/10/20 12:06:08;;;;;;;10.53;3.35;;;;;;;12.31;51.65;93643.54;1714699;82;20478;-86
2021/10/20 12:08:38;;;;;;;5.90;3.30;;;;;;;12.35;50.73;93627.16;1718204;82;21118;-85
2021/10/20 12:11:06;;;;;;;5.72;3.45;;;;;;;12.39;51.35;93629.27;1713746;81;21080;-86